createdAt,value
2023-05-16T00:00:47.339Z,42.35
2023-05-16T00:01:47.421Z,40.75
2023-05-16T00:02:47.387Z,40.57
2023-05-16T00:03:47.376Z,40.00
2023-05-16T00:04:47.314Z,41.66
2023-05-16T00:05:47.290Z,41.87
2023-05-16T00:06:47.284Z,39.39
2023-05-16T00:07:47.279Z,39.46
2023-05-16T00:08:47.256Z,39.59
2023-05-16T00:09:47.294Z,41.20
2023-05-16T00:10:47.248Z,41.92
2023-05-16T00:11:47.231Z,42.11
2023-05-16T00:12:47.233Z,42.30
2023-05-16T00:13:47.208Z,41.92
2023-05-16T00:14:47.201Z,41.14
2023-05-16T00:15:47.185Z,39.81
2023-05-16T00:16:47.267Z,38.07
2023-05-16T00:17:47.272Z,39.77
2023-05-16T00:18:47.184Z,39.48
2023-05-16T00:19:47.155Z,40.69
2023-05-16T00:20:47.144Z,44.58
2023-05-16T00:21:47.137Z,43.86
2023-05-16T00:22:47.116Z,41.79
2023-05-16T00:23:47.110Z,40.85
2023-05-16T00:24:47.102Z,39.55
2023-05-16T00:25:47.091Z,40.99
2023-05-16T00:26:47.092Z,40.87
2023-05-16T00:27:47.074Z,41.36
2023-05-16T00:28:47.054Z,39.72
2023-05-16T00:29:47.048Z,40.51
2023-05-16T00:30:47.047Z,41.06
2023-05-16T00:31:47.045Z,38.88
2023-05-16T00:32:47.061Z,39.16
2023-05-16T00:33:47.007Z,38.83
2023-05-16T00:34:47.041Z,39.66
2023-05-16T00:35:47.001Z,40.06
2023-05-16T00:36:46.975Z,39.39
2023-05-16T00:37:46.977Z,39.29
2023-05-16T00:38:46.962Z,41.46
2023-05-16T00:39:46.967Z,40.68
2023-05-16T00:40:46.941Z,41.05
2023-05-16T00:41:46.919Z,40.20
2023-05-16T00:42:46.917Z,40.29
2023-05-16T00:43:46.902Z,39.91
2023-05-16T00:44:46.902Z,43.09
2023-05-16T00:45:46.936Z,40.04
2023-05-16T00:46:47.067Z,39.52
2023-05-16T00:47:46.977Z,39.89
2023-05-16T00:48:46.860Z,39.69
2023-05-16T00:49:46.848Z,40.61
2023-05-16T00:50:46.829Z,40.94
2023-05-16T00:51:46.855Z,40.78
2023-05-16T00:52:46.807Z,40.48
2023-05-16T00:53:46.798Z,42.08
2023-05-16T00:54:46.800Z,45.48
2023-05-16T00:55:46.779Z,41.60
2023-05-16T00:56:46.766Z,42.22
2023-05-16T00:57:46.755Z,41.39
2023-05-16T00:58:46.768Z,41.31
2023-05-16T00:59:46.763Z,42.50
2023-05-16T01:00:48.572Z,43.84
2023-05-16T01:01:46.772Z,45.98
2023-05-16T01:02:46.879Z,42.40
2023-05-16T01:03:46.992Z,43.77
2023-05-16T01:04:46.680Z,47.23
2023-05-16T01:05:46.711Z,42.24
2023-05-16T01:06:46.670Z,41.45
2023-05-16T01:07:46.654Z,42.53
2023-05-16T01:08:46.655Z,42.65
2023-05-16T01:09:46.642Z,44.22
2023-05-16T01:10:46.625Z,44.32
2023-05-16T01:11:46.615Z,44.46
2023-05-16T01:12:46.600Z,43.42
2023-05-16T01:13:46.603Z,44.52
2023-05-16T01:14:46.577Z,43.78
2023-05-16T01:15:46.617Z,42.22
2023-05-16T01:16:46.574Z,42.32
2023-05-16T01:17:46.609Z,43.07
2023-05-16T01:18:46.600Z,43.40
2023-05-16T01:19:46.533Z,43.01
2023-05-16T01:20:46.536Z,43.57
2023-05-16T01:21:46.522Z,42.64
2023-05-16T01:22:46.509Z,46.22
2023-05-16T01:23:46.514Z,42.30
2023-05-16T01:24:46.507Z,41.72
2023-05-16T01:25:46.484Z,41.16
2023-05-16T01:26:46.511Z,40.06
2023-05-16T01:27:46.463Z,40.09
2023-05-16T01:28:46.457Z,41.48
2023-05-16T01:29:46.442Z,41.53
2023-05-16T01:30:46.432Z,41.59
2023-05-16T01:31:46.459Z,42.33
2023-05-16T01:32:46.457Z,42.15
2023-05-16T01:33:46.398Z,41.69
2023-05-16T01:34:47.393Z,41.90
2023-05-16T01:35:46.381Z,40.47
2023-05-16T01:36:46.381Z,39.82
2023-05-16T01:37:46.371Z,39.59
2023-05-16T01:38:46.351Z,40.12
2023-05-16T01:39:46.338Z,41.81
2023-05-16T01:40:46.326Z,41.42
2023-05-16T01:41:46.332Z,42.46
2023-05-16T01:42:46.314Z,40.74
2023-05-16T01:43:46.313Z,40.12
2023-05-16T01:44:46.291Z,42.46
2023-05-16T01:45:46.280Z,39.40
2023-05-16T01:46:46.311Z,40.37
2023-05-16T01:47:46.274Z,39.78
2023-05-16T01:48:46.259Z,47.66
2023-05-16T01:49:46.244Z,42.08
2023-05-16T01:50:46.253Z,46.29
2023-05-16T01:51:46.227Z,41.62
2023-05-16T01:52:46.213Z,39.90
2023-05-16T01:53:46.195Z,38.88
2023-05-16T01:54:46.196Z,41.86
2023-05-16T01:55:46.199Z,41.86
2023-05-16T01:56:46.172Z,39.88
2023-05-16T01:57:46.179Z,39.17
2023-05-16T01:58:46.161Z,40.20
2023-05-16T01:59:46.141Z,42.51
2023-05-16T02:00:46.192Z,39.27
2023-05-16T02:01:46.140Z,38.25
2023-05-16T02:02:46.162Z,38.41
2023-05-16T02:03:46.142Z,38.54
2023-05-16T02:04:46.084Z,39.58
2023-05-16T02:05:46.087Z,41.29
2023-05-16T02:06:46.101Z,42.99
2023-05-16T02:07:46.062Z,40.41
2023-05-16T02:08:46.051Z,41.37
2023-05-16T02:09:46.045Z,37.95
2023-05-16T02:10:46.040Z,38.54
2023-05-16T02:11:46.021Z,40.67
2023-05-16T02:12:46.019Z,39.53
2023-05-16T02:13:45.994Z,40.45
2023-05-16T02:14:45.995Z,41.00
2023-05-16T02:15:45.972Z,39.42
2023-05-16T02:16:45.980Z,38.23
2023-05-16T02:17:45.977Z,37.87
2023-05-16T02:18:46.002Z,38.80
2023-05-16T02:19:45.941Z,39.47
2023-05-16T02:20:45.919Z,39.40
2023-05-16T02:21:45.911Z,43.46
2023-05-16T02:22:45.897Z,40.00
2023-05-16T02:23:45.902Z,38.98
2023-05-16T02:24:45.885Z,39.08
2023-05-16T02:25:45.879Z,39.90
2023-05-16T02:26:45.871Z,38.53
2023-05-16T02:27:45.842Z,39.80
2023-05-16T02:28:45.846Z,38.40
2023-05-16T02:29:45.847Z,38.79
2023-05-16T02:30:45.836Z,38.13
2023-05-16T02:31:45.816Z,38.24
2023-05-16T02:32:45.795Z,38.20
2023-05-16T02:33:45.790Z,38.82
2023-05-16T02:34:45.766Z,39.69
2023-05-16T02:35:45.769Z,40.14
2023-05-16T02:36:45.749Z,40.61
2023-05-16T02:37:45.738Z,43.46
2023-05-16T02:38:45.741Z,46.21
2023-05-16T02:39:45.715Z,46.46
2023-05-16T02:40:45.711Z,45.42
2023-05-16T02:41:45.701Z,45.27
2023-05-16T02:42:45.692Z,46.94
2023-05-16T02:43:47.105Z,45.52
2023-05-16T02:44:46.670Z,50.08
2023-05-16T02:45:45.739Z,49.79
2023-05-16T02:46:45.718Z,46.30
2023-05-16T02:47:45.689Z,46.08
2023-05-16T02:48:45.624Z,47.83
2023-05-16T02:49:45.610Z,53.19
2023-05-16T02:50:45.599Z,51.47
2023-05-16T02:51:45.576Z,51.24
2023-05-16T02:52:46.589Z,52.42
2023-05-16T02:53:45.575Z,52.75
2023-05-16T02:54:48.883Z,54.54
2023-05-16T02:55:46.540Z,52.81
2023-05-16T02:56:45.524Z,51.04
2023-05-16T02:57:45.532Z,47.85
2023-05-16T02:58:45.512Z,50.04
2023-05-16T02:59:45.505Z,52.53
2023-05-16T03:00:45.490Z,52.29
2023-05-16T03:01:45.545Z,52.28
2023-05-16T03:02:45.588Z,49.37
2023-05-16T03:03:45.578Z,48.73
2023-05-16T03:04:45.454Z,51.30
2023-05-16T03:05:45.455Z,51.50
2023-05-16T03:06:45.453Z,51.14
2023-05-16T03:07:45.423Z,51.03
2023-05-16T03:08:45.408Z,51.36
2023-05-16T03:09:45.407Z,53.69
2023-05-16T03:10:45.387Z,53.28
2023-05-16T03:11:45.386Z,50.20
2023-05-16T03:12:45.374Z,51.84
2023-05-16T03:13:45.357Z,51.23
2023-05-16T03:14:45.340Z,52.03
2023-05-16T03:15:45.365Z,54.49
2023-05-16T03:16:45.420Z,52.81
2023-05-16T03:17:45.352Z,50.73
2023-05-16T03:18:45.360Z,51.22
2023-05-16T03:19:45.288Z,48.48
2023-05-16T03:20:45.296Z,50.80
2023-05-16T03:21:45.284Z,51.55
2023-05-16T03:22:45.278Z,52.92
2023-05-16T03:23:45.269Z,49.19
2023-05-16T03:24:45.292Z,49.22
2023-05-16T03:25:45.249Z,51.50
2023-05-16T03:26:45.226Z,54.52
2023-05-16T03:27:45.210Z,47.80
2023-05-16T03:28:45.201Z,48.90
2023-05-16T03:29:45.181Z,48.61
2023-05-16T03:30:45.188Z,49.63
2023-05-16T03:31:45.216Z,49.29
2023-05-16T03:32:45.202Z,45.77
2023-05-16T03:33:45.149Z,47.63
2023-05-16T03:34:45.162Z,52.08
2023-05-16T03:35:45.131Z,49.48
2023-05-16T03:36:45.108Z,41.17
2023-05-16T03:37:45.105Z,44.34
2023-05-16T03:38:45.102Z,41.05
2023-05-16T03:39:45.101Z,45.22
2023-05-16T03:40:45.067Z,44.89
2023-05-16T03:41:45.058Z,48.02
2023-05-16T03:42:45.049Z,46.91
2023-05-16T03:43:45.038Z,46.26
2023-05-16T03:44:45.040Z,48.19
2023-05-16T03:45:45.046Z,51.79
2023-05-16T03:46:45.005Z,49.31
2023-05-16T03:47:45.044Z,49.35
2023-05-16T03:48:44.998Z,50.05
2023-05-16T03:49:44.986Z,46.67
2023-05-16T03:50:44.966Z,54.72
2023-05-16T03:51:44.954Z,46.10
2023-05-16T03:52:44.943Z,44.77
2023-05-16T03:53:44.954Z,43.66
2023-05-16T03:54:44.923Z,44.51
2023-05-16T03:55:46.821Z,46.18
2023-05-16T03:56:44.898Z,46.43
2023-05-16T03:57:44.892Z,49.83
2023-05-16T03:58:44.892Z,48.21
2023-05-16T03:59:44.870Z,50.53
2023-05-16T04:00:44.862Z,45.21
2023-05-16T04:01:44.913Z,48.27
2023-05-16T04:02:45.100Z,45.18
2023-05-16T04:03:44.844Z,46.86
2023-05-16T04:04:44.835Z,50.63
2023-05-16T04:05:44.849Z,47.44
2023-05-16T04:06:44.811Z,48.81
2023-05-16T04:07:44.802Z,51.46
2023-05-16T04:08:44.787Z,50.39
2023-05-16T04:09:44.769Z,44.71
2023-05-16T04:10:44.757Z,47.41
2023-05-16T04:11:44.754Z,53.25
2023-05-16T04:12:44.757Z,54.66
2023-05-16T04:13:44.910Z,48.63
2023-05-16T04:14:44.722Z,54.04
2023-05-16T04:15:44.705Z,51.23
2023-05-16T04:16:44.738Z,49.49
2023-05-16T04:17:44.718Z,51.48
2023-05-16T04:18:44.688Z,51.31
2023-05-16T04:19:44.664Z,51.29
2023-05-16T04:20:44.670Z,46.99
2023-05-16T04:21:44.632Z,51.19
2023-05-16T04:22:44.634Z,50.26
2023-05-16T04:23:44.606Z,53.22
2023-05-16T04:24:44.606Z,49.39
2023-05-16T04:25:44.606Z,49.94
2023-05-16T04:26:44.578Z,51.39
2023-05-16T04:27:44.579Z,50.31
2023-05-16T04:28:44.557Z,51.68
2023-05-16T04:29:44.560Z,52.44
2023-05-16T04:30:44.535Z,54.57
2023-05-16T04:31:44.552Z,50.10
2023-05-16T04:32:44.557Z,50.19
2023-05-16T04:33:44.510Z,50.70
2023-05-16T04:34:44.511Z,44.31
2023-05-16T04:35:44.486Z,47.04
2023-05-16T04:36:44.485Z,52.29
2023-05-16T04:37:44.465Z,44.99
2023-05-16T04:38:44.444Z,45.86
2023-05-16T04:39:45.447Z,46.49
2023-05-16T04:40:44.442Z,50.17
2023-05-16T04:41:44.436Z,51.37
2023-05-16T04:42:44.427Z,46.05
2023-05-16T04:43:44.403Z,50.77
2023-05-16T04:44:44.395Z,54.66
2023-05-16T04:45:44.397Z,50.13
2023-05-16T04:46:44.397Z,54.98
2023-05-16T04:47:45.934Z,48.37
2023-05-16T04:48:44.358Z,52.00
2023-05-16T04:49:44.348Z,53.07
2023-05-16T04:50:44.354Z,46.93
2023-05-16T04:51:44.324Z,51.86
2023-05-16T04:52:44.311Z,51.18
2023-05-16T04:53:44.311Z,42.16
2023-05-16T04:54:44.402Z,44.38
2023-05-16T04:55:44.298Z,52.72
2023-05-16T04:56:44.281Z,46.39
2023-05-16T04:57:44.263Z,51.89
2023-05-16T04:58:44.274Z,49.85
2023-05-16T04:59:44.253Z,46.89
2023-05-16T05:00:44.241Z,49.40
2023-05-16T05:01:44.249Z,49.18
2023-05-16T05:02:44.244Z,52.37
2023-05-16T05:03:45.705Z,54.68
2023-05-16T05:04:44.220Z,54.19
2023-05-16T05:05:44.176Z,50.63
2023-05-16T05:06:44.181Z,52.45
2023-05-16T05:07:44.155Z,54.17
2023-05-16T05:08:44.147Z,50.83
2023-05-16T05:09:44.565Z,50.81
2023-05-16T05:10:44.125Z,52.11
2023-05-16T05:11:44.118Z,56.49
2023-05-16T05:12:44.100Z,54.53
2023-05-16T05:13:44.098Z,53.41
2023-05-16T05:14:44.094Z,52.77
2023-05-16T05:15:44.073Z,49.46
2023-05-16T05:16:44.061Z,49.36
2023-05-16T05:17:44.209Z,52.43
2023-05-16T05:18:44.087Z,53.43
2023-05-16T05:19:44.133Z,56.99
2023-05-16T05:20:44.024Z,56.80
2023-05-16T05:21:44.009Z,56.93
2023-05-16T05:22:43.996Z,58.93
2023-05-16T05:23:43.996Z,58.43
2023-05-16T05:24:43.977Z,57.79
2023-05-16T05:25:43.970Z,59.35
2023-05-16T05:26:43.960Z,60.15
2023-05-16T05:27:43.954Z,59.56
2023-05-16T05:28:50.799Z,59.53
2023-05-16T05:29:44.938Z,59.87
2023-05-16T05:30:43.931Z,57.89
2023-05-16T05:31:47.953Z,58.37
2023-05-16T05:32:43.986Z,57.75
2023-05-16T05:33:44.572Z,55.09
2023-05-16T05:34:45.062Z,53.79
2023-05-16T05:35:44.053Z,54.39
2023-05-16T05:36:43.966Z,53.41
2023-05-16T05:37:43.949Z,59.33
2023-05-16T05:38:43.923Z,59.28
2023-05-16T05:39:43.945Z,59.49
2023-05-16T05:40:43.933Z,58.27
2023-05-16T05:41:43.890Z,55.46
2023-05-16T05:42:46.705Z,51.12
2023-05-16T05:43:43.907Z,52.13
2023-05-16T05:44:43.884Z,54.43
2023-05-16T05:45:43.963Z,54.12
2023-05-16T05:46:43.811Z,53.61
2023-05-16T05:47:43.906Z,51.38
2023-05-16T05:48:43.879Z,53.94
2023-05-16T05:49:43.802Z,54.31
2023-05-16T05:50:43.819Z,53.90
2023-05-16T05:51:43.780Z,51.57
2023-05-16T05:52:43.781Z,51.07
2023-05-16T05:53:43.757Z,54.58
2023-05-16T05:54:43.756Z,52.57
2023-05-16T05:55:43.707Z,53.97
2023-05-16T05:56:43.725Z,57.74
2023-05-16T05:57:43.747Z,62.78
2023-05-16T05:58:43.711Z,60.51
2023-05-16T05:59:43.699Z,53.96
2023-05-16T06:00:43.720Z,56.50
2023-05-16T06:01:43.724Z,53.07
2023-05-16T06:02:43.839Z,53.83
2023-05-16T06:03:43.657Z,54.20
2023-05-16T06:04:44.845Z,55.36
2023-05-16T06:05:44.384Z,51.65
2023-05-16T06:06:43.734Z,49.85
2023-05-16T06:07:44.608Z,51.33
2023-05-16T06:08:43.734Z,50.72
2023-05-16T06:09:43.643Z,49.95
2023-05-16T06:10:43.599Z,51.01
2023-05-16T06:11:43.684Z,49.28
2023-05-16T06:12:43.677Z,47.26
2023-05-16T06:13:43.802Z,46.57
2023-05-16T06:14:44.168Z,49.30
2023-05-16T06:15:43.712Z,48.21
2023-05-16T06:16:44.976Z,46.65
2023-05-16T06:17:44.223Z,52.26
2023-05-16T06:18:43.758Z,54.51
2023-05-16T06:19:44.940Z,45.02
2023-05-16T06:20:44.125Z,56.96
2023-05-16T06:21:43.887Z,47.84
2023-05-16T06:22:43.826Z,49.76
2023-05-16T06:23:49.021Z,47.57
2023-05-16T06:24:43.950Z,46.54
2023-05-16T06:26:17.722Z,49.48
2023-05-16T06:26:52.961Z,47.72
2023-05-16T06:27:48.589Z,47.36
2023-05-16T06:28:43.439Z,48.14
2023-05-16T06:29:43.465Z,50.17
2023-05-16T06:30:43.429Z,51.36
2023-05-16T06:31:43.490Z,52.15
2023-05-16T06:33:20.658Z,50.46
2023-05-16T06:34:04.728Z,53.01
2023-05-16T07:25:10.867Z,54.17
2023-05-16T07:26:10.709Z,57.28
2023-05-16T07:27:10.787Z,58.08
2023-05-16T07:28:10.638Z,57.22
2023-05-16T07:34:09.528Z,57.26
2023-05-16T07:35:09.524Z,54.75
2023-05-16T07:36:16.890Z,52.92
2023-05-16T07:39:36.529Z,44.01
2023-05-16T07:40:36.433Z,46.30
2023-05-16T07:41:36.581Z,48.06
2023-05-16T07:45:02.434Z,52.86
2023-05-16T07:46:02.406Z,52.40
2023-05-16T07:47:02.395Z,50.59
2023-05-16T07:48:03.106Z,50.00
2023-05-16T07:49:02.387Z,43.99
2023-05-16T07:50:02.374Z,48.40
2023-05-16T07:51:13.417Z,50.17
2023-05-16T07:52:02.317Z,50.34
2023-05-16T07:53:02.295Z,55.45
2023-05-16T07:54:02.350Z,53.41
2023-05-16T07:55:02.312Z,51.37
2023-05-16T07:56:02.276Z,44.32
2023-05-16T07:57:02.254Z,48.02
2023-05-16T07:58:02.258Z,43.53
2023-05-16T07:59:02.321Z,48.01
2023-05-16T08:00:02.245Z,48.59
2023-05-16T08:01:02.210Z,45.72
2023-05-16T08:02:02.268Z,54.51
2023-05-16T08:03:02.340Z,48.06
2023-05-16T08:04:02.240Z,49.22
2023-05-16T08:05:02.228Z,44.37
2023-05-16T08:06:02.346Z,50.07
2023-05-16T08:07:02.158Z,44.91
2023-05-16T08:08:02.135Z,53.07
2023-05-16T08:09:02.141Z,45.43
2023-05-16T08:10:02.140Z,47.94
2023-05-16T08:11:02.179Z,55.83
2023-05-16T08:12:02.104Z,47.34
2023-05-16T08:13:02.116Z,46.37
2023-05-16T08:14:02.087Z,50.13
2023-05-16T08:15:02.066Z,49.51
2023-05-16T08:16:02.113Z,50.03
2023-05-16T08:17:03.003Z,50.98
2023-05-16T08:18:02.078Z,51.29
2023-05-16T08:19:02.061Z,44.13
2023-05-16T08:20:02.005Z,50.32
2023-05-16T08:21:02.003Z,48.65
2023-05-16T08:22:01.992Z,40.24
2023-05-16T08:23:01.983Z,44.96
2023-05-16T08:24:01.996Z,47.51
2023-05-16T08:25:01.954Z,46.30
2023-05-16T08:26:01.950Z,48.03
2023-05-16T08:27:01.976Z,41.91
2023-05-16T08:28:01.936Z,49.84
2023-05-16T08:29:01.917Z,47.48
2023-05-16T08:30:01.910Z,51.44
2023-05-16T08:31:01.920Z,48.48
2023-05-16T08:32:02.004Z,48.02
2023-05-16T08:33:01.993Z,46.79
2023-05-16T08:34:01.870Z,46.53
2023-05-16T08:35:01.850Z,49.41
2023-05-16T08:36:01.835Z,50.16
2023-05-16T08:37:01.843Z,52.83
2023-05-16T08:38:01.930Z,52.12
2023-05-16T08:39:01.806Z,48.12
2023-05-16T08:40:01.802Z,45.04
2023-05-16T08:41:01.792Z,47.27
2023-05-16T08:42:01.794Z,45.45
2023-05-16T08:43:01.812Z,45.90
2023-05-16T08:44:01.767Z,45.75
2023-05-16T08:45:01.742Z,47.27
2023-05-16T08:46:01.749Z,44.55
2023-05-16T08:47:01.793Z,52.20
2023-05-16T08:48:01.776Z,50.44
2023-05-16T08:49:01.713Z,51.14
2023-05-16T08:50:01.779Z,47.46
2023-05-16T08:51:01.703Z,52.98
2023-05-16T08:52:01.765Z,52.68
2023-05-16T08:53:01.671Z,50.39
2023-05-16T08:54:01.655Z,44.57
2023-05-16T08:56:01.660Z,48.93
2023-05-16T08:57:01.628Z,51.82
2023-05-16T08:58:01.624Z,50.29
2023-05-16T08:59:01.615Z,46.92
2023-05-16T09:00:01.597Z,47.30
2023-05-16T09:01:01.644Z,52.14
2023-05-16T09:02:01.587Z,46.07
2023-05-16T09:03:01.600Z,46.41
2023-05-16T09:04:01.641Z,43.91
2023-05-16T09:05:01.567Z,51.27
2023-05-16T09:06:01.569Z,48.16
2023-05-16T09:07:01.524Z,44.77
2023-05-16T09:08:01.544Z,48.09
2023-05-16T09:09:01.507Z,46.06
2023-05-16T09:10:01.543Z,40.16
2023-05-16T09:11:01.483Z,41.22
2023-05-16T09:12:01.482Z,51.63
2023-05-16T09:13:01.469Z,45.64
2023-05-16T09:14:01.459Z,43.98
2023-05-16T09:15:01.547Z,44.29
2023-05-16T09:16:01.440Z,42.18
2023-05-16T09:17:01.433Z,41.38
2023-05-16T09:18:01.538Z,46.52
2023-05-16T09:19:01.479Z,48.21
2023-05-16T09:20:01.439Z,45.19
2023-05-16T09:21:01.382Z,45.27
2023-05-16T09:22:01.389Z,41.61
2023-05-16T09:23:01.384Z,41.59
2023-05-16T09:24:01.382Z,46.04
2023-05-16T09:25:01.346Z,44.12
2023-05-16T09:26:01.336Z,47.96
2023-05-16T09:27:01.342Z,48.76
2023-05-16T09:28:01.576Z,55.92
2023-05-16T09:29:01.338Z,45.56
2023-05-16T09:30:01.289Z,50.79
2023-05-16T09:31:01.274Z,53.73
2023-05-16T09:32:01.271Z,47.46
2023-05-16T09:33:01.321Z,50.33
2023-05-16T09:34:01.257Z,46.98
2023-05-16T09:35:01.256Z,47.20
2023-05-16T09:36:01.223Z,51.44
2023-05-16T09:37:01.206Z,48.05
2023-05-16T09:38:01.219Z,47.39
2023-05-16T09:39:01.192Z,42.04
2023-05-16T09:40:01.180Z,46.48
2023-05-16T09:41:01.177Z,47.99
2023-05-16T09:42:01.164Z,48.70
2023-05-16T09:43:01.158Z,43.10
2023-05-16T09:44:01.150Z,45.31
2023-05-16T09:45:02.077Z,50.30
2023-05-16T09:46:01.250Z,44.69
2023-05-16T09:47:01.104Z,49.19
2023-05-16T09:48:01.148Z,48.04
2023-05-16T09:49:01.083Z,51.60
2023-05-16T09:50:01.073Z,49.45
2023-05-16T09:51:02.348Z,52.04
2023-05-16T09:52:01.056Z,51.39
2023-05-16T09:53:01.051Z,47.22
2023-05-16T09:54:01.025Z,43.62
2023-05-16T09:55:01.015Z,43.54
2023-05-16T09:56:01.015Z,44.15
2023-05-16T09:57:03.011Z,47.78
2023-05-16T09:58:01.021Z,54.42
2023-05-16T09:59:00.971Z,52.01
2023-05-16T10:00:00.965Z,50.91
2023-05-16T10:01:00.952Z,49.92
2023-05-16T10:02:01.672Z,50.92
2023-05-16T10:03:11.663Z,51.15
2023-05-16T10:06:26.889Z,44.34
2023-05-16T10:07:26.892Z,45.81
2023-05-16T10:08:27.031Z,43.62
2023-05-16T10:13:24.466Z,46.56
2023-05-16T10:19:42.900Z,44.12
2023-05-16T10:20:42.925Z,47.93
2023-05-16T10:21:42.900Z,43.67
2023-05-16T10:22:42.869Z,43.99
2023-05-16T10:23:42.954Z,45.05
2023-05-16T10:24:42.854Z,41.25
2023-05-16T10:25:42.841Z,50.91
2023-05-16T10:26:42.843Z,43.44
2023-05-16T10:27:42.817Z,44.33
2023-05-16T10:28:42.818Z,52.88
2023-05-16T10:29:53.580Z,51.07
2023-05-16T10:30:43.796Z,52.75
2023-05-16T10:31:42.858Z,55.23
2023-05-16T10:32:43.064Z,52.57
2023-05-16T10:33:42.748Z,53.29
2023-05-16T10:34:42.794Z,53.65
2023-05-16T10:35:42.751Z,54.69
2023-05-16T10:36:42.721Z,56.34
2023-05-16T10:37:42.704Z,57.57
2023-05-16T10:38:42.710Z,56.54
2023-05-16T10:39:42.688Z,56.96
2023-05-16T10:40:44.041Z,56.19
2023-05-16T10:49:26.554Z,50.64
2023-05-16T10:50:26.563Z,50.39
2023-05-16T10:51:26.513Z,44.30
2023-05-16T10:52:26.512Z,47.08
2023-05-16T10:53:26.507Z,47.60
2023-05-16T10:54:27.131Z,50.74
2023-05-16T10:55:27.316Z,45.08
2023-05-16T10:56:26.521Z,49.38
2023-05-16T10:57:26.459Z,47.71
2023-05-16T10:58:26.451Z,43.25
2023-05-16T10:59:26.428Z,47.75
2023-05-16T11:00:26.412Z,46.34
2023-05-16T11:01:26.467Z,46.33
2023-05-16T11:02:26.490Z,46.31
2023-05-16T11:03:26.519Z,47.99
2023-05-16T11:04:26.376Z,43.66
2023-05-16T11:05:26.703Z,44.08
2023-05-16T11:06:26.387Z,39.87
2023-05-16T11:07:26.348Z,43.42
2023-05-16T11:08:26.333Z,42.61
2023-05-16T11:09:26.314Z,48.63
2023-05-16T11:10:26.306Z,45.98
2023-05-16T11:11:26.301Z,47.80
2023-05-16T11:12:26.281Z,48.43
2023-05-16T11:13:26.303Z,50.24
2023-05-16T11:14:26.273Z,48.54
2023-05-16T11:15:26.471Z,51.24
2023-05-16T11:16:26.285Z,45.31
2023-05-16T11:17:29.940Z,47.57
2023-05-16T11:18:26.260Z,49.27
2023-05-16T11:21:51.869Z,48.71
2023-05-16T11:31:29.501Z,59.74
2023-05-16T11:32:29.529Z,56.28
2023-05-16T11:33:29.468Z,58.93
2023-05-16T11:34:29.487Z,59.60
2023-05-16T11:35:29.769Z,58.94
2023-05-16T11:36:29.458Z,57.68
2023-05-16T11:37:29.439Z,55.67
2023-05-16T11:38:29.413Z,54.61
2023-05-16T11:39:29.472Z,55.64
2023-05-16T11:40:29.396Z,57.38
2023-05-16T11:41:29.459Z,54.08
2023-05-16T11:42:29.526Z,49.34
2023-05-16T11:43:29.370Z,49.57
2023-05-16T11:44:29.545Z,49.89
2023-05-16T11:45:29.537Z,47.89
2023-05-16T11:46:29.388Z,55.97
2023-05-16T11:47:29.379Z,56.97
2023-05-16T11:48:36.178Z,46.25
2023-05-16T11:49:30.301Z,48.93
2023-05-16T11:50:29.288Z,51.12
2023-05-16T11:51:29.331Z,43.15
2023-05-16T11:52:29.271Z,45.13
2023-05-16T11:53:29.263Z,45.09
2023-05-16T11:54:29.249Z,54.15
2023-05-16T11:55:41.188Z,49.91
2023-05-16T11:56:30.239Z,49.86
2023-05-16T11:57:29.218Z,52.85
2023-05-16T11:58:29.207Z,54.41
2023-05-16T11:59:29.192Z,48.06
2023-05-16T12:00:29.203Z,45.70
2023-05-16T12:01:30.321Z,48.13
2023-05-16T12:02:29.244Z,50.49
2023-05-16T12:03:29.245Z,54.35
2023-05-16T12:04:29.333Z,50.38
2023-05-16T12:05:29.445Z,57.00
2023-05-16T12:06:29.125Z,50.83
2023-05-16T12:07:29.110Z,51.57
2023-05-16T12:08:29.110Z,48.03
2023-05-16T12:09:29.130Z,54.51
2023-05-16T12:10:29.271Z,48.61
2023-05-16T12:11:46.567Z,53.62
2023-05-16T12:12:30.065Z,50.46
2023-05-16T12:13:29.047Z,53.80
2023-05-16T12:14:29.045Z,54.79
2023-05-16T12:15:29.229Z,53.16
2023-05-16T12:16:29.061Z,49.39
2023-05-16T12:17:29.021Z,53.74
2023-05-16T12:18:29.001Z,55.05
2023-05-16T12:19:29.009Z,53.15
2023-05-16T12:20:28.992Z,51.51
2023-05-16T12:21:28.959Z,54.80
2023-05-16T12:22:28.953Z,53.41
2023-05-16T12:23:28.939Z,52.34
2023-05-16T12:24:30.357Z,54.39
2023-05-16T12:25:29.519Z,57.53
2023-05-16T12:26:28.912Z,53.81
2023-05-16T12:27:28.898Z,51.65
2023-05-16T12:28:28.906Z,53.10
2023-05-16T12:29:28.879Z,49.27
2023-05-16T12:30:29.080Z,55.21
2023-05-16T12:31:31.798Z,49.75
2023-05-16T12:32:28.893Z,50.42
2023-05-16T12:33:28.961Z,51.20
2023-05-16T12:34:28.824Z,49.72
2023-05-16T12:35:28.811Z,52.12
2023-05-16T12:36:28.805Z,47.42
2023-05-16T12:37:28.791Z,44.72
2023-05-16T12:38:28.794Z,47.38
2023-05-16T12:39:28.775Z,48.87
2023-05-16T12:40:29.128Z,41.34
2023-05-16T12:41:28.750Z,46.92
2023-05-16T12:42:28.740Z,46.12
2023-05-16T12:43:28.737Z,45.78
2023-05-16T12:44:28.718Z,46.92
2023-05-16T12:45:28.739Z,49.69
2023-05-16T12:46:28.716Z,52.61
2023-05-16T12:47:28.866Z,52.49
2023-05-16T12:48:28.685Z,51.06
2023-05-16T12:49:28.665Z,48.30
2023-05-16T12:50:28.792Z,45.23
2023-05-16T12:51:28.649Z,44.37
2023-05-16T12:52:28.637Z,47.10
2023-05-16T12:53:28.621Z,42.40
2023-05-16T12:54:28.605Z,46.26
2023-05-16T12:55:28.603Z,46.84
2023-05-16T12:56:28.603Z,47.36
2023-05-16T12:57:28.591Z,52.36
2023-05-16T12:58:28.638Z,50.50
2023-05-16T12:59:28.558Z,49.91
2023-05-16T13:00:28.698Z,52.54
2023-05-16T13:01:28.663Z,54.58
2023-05-16T13:02:28.608Z,52.38
2023-05-16T13:03:29.320Z,50.66
2023-05-16T13:04:28.506Z,50.58
2023-05-16T13:07:54.514Z,53.80
2023-05-16T13:08:54.861Z,52.44
2023-05-16T13:09:54.546Z,53.40
2023-05-16T13:10:54.797Z,51.93
2023-05-16T13:11:54.568Z,51.58
2023-05-16T13:12:54.644Z,53.08
2023-05-16T13:13:54.531Z,55.73
2023-05-16T13:14:55.636Z,54.92
2023-05-16T13:15:54.538Z,56.19
2023-05-16T13:17:09.148Z,53.97
2023-05-16T13:18:58.076Z,57.02
2023-05-16T13:18:58.475Z,0.00
2023-05-16T13:19:58.444Z,52.53
2023-05-16T13:20:58.451Z,53.57
2023-05-16T13:21:58.440Z,54.47
2023-05-16T13:22:58.406Z,53.88
2023-05-16T13:23:58.407Z,53.90
2023-05-16T13:24:58.438Z,54.66
2023-05-16T13:25:58.392Z,53.15
2023-05-16T13:26:58.401Z,51.94
2023-05-16T13:27:58.464Z,46.45
2023-05-16T13:28:58.368Z,46.29
2023-05-16T13:29:58.360Z,47.35
2023-05-16T13:31:00.190Z,45.46
2023-05-16T13:31:58.402Z,48.77
2023-05-16T13:32:58.367Z,48.37
2023-05-16T13:33:58.303Z,49.24
2023-05-16T13:34:58.298Z,57.56
2023-05-16T13:35:58.278Z,59.90
2023-05-16T13:36:58.272Z,60.88
2023-05-16T13:37:58.312Z,58.72
2023-05-16T13:38:58.240Z,58.15
2023-05-16T13:39:58.277Z,56.41
2023-05-16T13:40:58.225Z,45.26
2023-05-16T13:41:58.215Z,47.24
2023-05-16T13:42:58.206Z,43.39
2023-05-16T13:43:58.370Z,44.43
2023-05-16T13:44:58.194Z,45.36
2023-05-16T13:45:58.200Z,45.92
2023-05-16T13:46:58.168Z,46.88
2023-05-16T13:47:58.184Z,42.73
2023-05-16T13:48:59.734Z,42.54
2023-05-16T13:49:58.137Z,39.54
2023-05-16T13:50:58.119Z,38.98
2023-05-16T13:51:58.114Z,45.75
2023-05-16T13:52:58.094Z,44.29
2023-05-16T13:53:58.093Z,41.36
2023-05-16T13:54:58.074Z,47.04
2023-05-16T13:55:58.071Z,46.64
2023-05-16T13:56:58.052Z,37.78
2023-05-16T13:57:58.054Z,45.74
2023-05-16T13:59:01.112Z,44.51
2023-05-16T14:00:24.954Z,45.34
2023-05-16T14:00:59.037Z,52.02
2023-05-16T14:01:58.220Z,48.30
2023-05-16T14:02:58.064Z,53.93
2023-05-16T14:03:58.010Z,53.58
2023-05-16T14:04:57.986Z,51.28
2023-05-16T14:05:58.007Z,45.33
2023-05-16T14:06:57.969Z,47.58
2023-05-16T14:07:57.958Z,44.71
2023-05-16T14:08:57.969Z,46.43
2023-05-16T14:09:57.925Z,43.04
2023-05-16T14:10:57.926Z,44.00
2023-05-16T14:11:57.902Z,42.30
2023-05-16T14:12:57.896Z,50.33
2023-05-16T14:13:57.876Z,48.62
2023-05-16T14:14:57.885Z,43.66
2023-05-16T14:15:58.021Z,46.89
2023-05-16T14:16:57.869Z,50.26
2023-05-16T14:17:57.907Z,45.03
2023-05-16T14:18:57.948Z,52.42
2023-05-16T14:19:57.815Z,52.87
2023-05-16T14:20:57.836Z,43.22
2023-05-16T14:21:57.846Z,44.21
2023-05-16T14:22:57.787Z,50.42
2023-05-16T14:23:57.834Z,43.72
2023-05-16T14:24:57.753Z,48.44
2023-05-16T14:25:57.755Z,43.74
2023-05-16T14:26:57.793Z,43.13